EGPN/DND METAR and TAF weather

Enter ICAO airport designator
Station Type Date Time Source
EGPN METAR 2021/09/23 19:50 UTC NOAA

EGPN 231950Z 26010KT 9999 FEW022 BKN032 16/13 Q1012


Station Type Date Time Source
EGPN Decoded METAR 2021/09/23 19:50 UTC NOAA

Dundee / Riverside, United Kingdom (EGPN) 56-27N 003-01W
Sep 23, 2021 - 03:50 PM EDT / 2021.09.23 1950 UTC
Wind: from the W (260 degrees) at 12 MPH (10 KT):0
Visibility: greater than 7 mile(s):0
Sky conditions: mostly cloudy
Temperature: 60 F (16 C)
Dew Point: 55 F (13 C)
Relative Humidity: 82%
Pressure (altimeter): 29.88 in. Hg (1012 hPa)
ob: EGPN 231950Z 26010KT 9999 FEW022 BKN032 16/13 Q1012
cycle: 20

Station Type Date Time Source
EGPN TAF 2019/01/15 18:56 UTC NOAA

TAF EGPN 151750Z 1518/1621 CNL

Example: see airport list